sensor_id;sensor_type;location;lat;lon;timestamp;P1;durP1;ratioP1;P2;durP2;ratioP2
69754;SDS011;57023;52.218;5.158;2023-11-21T00:00:56;35.33;;;15.43;;
69754;SDS011;57023;52.218;5.158;2023-11-21T00:03:23;37.00;;;15.38;;
69754;SDS011;57023;52.218;5.158;2023-11-21T00:05:49;34.45;;;15.13;;
69754;SDS011;57023;52.218;5.158;2023-11-21T00:08:14;39.60;;;15.13;;
69754;SDS011;57023;52.218;5.158;2023-11-21T00:10:39;35.13;;;14.77;;
69754;SDS011;57023;52.218;5.158;2023-11-21T00:13:05;37.38;;;14.27;;
69754;SDS011;57023;52.218;5.158;2023-11-21T00:15:30;35.17;;;14.25;;
69754;SDS011;57023;52.218;5.158;2023-11-21T00:17:55;38.58;;;14.95;;
69754;SDS011;57023;52.218;5.158;2023-11-21T00:20:21;55.10;;;15.85;;
69754;SDS011;57023;52.218;5.158;2023-11-21T00:22:46;109.05;;;18.02;;
69754;SDS011;57023;52.218;5.158;2023-11-21T00:25:12;50.95;;;16.30;;
69754;SDS011;57023;52.218;5.158;2023-11-21T00:27:40;46.65;;;16.15;;
69754;SDS011;57023;52.218;5.158;2023-11-21T00:30:05;37.05;;;14.63;;
69754;SDS011;57023;52.218;5.158;2023-11-21T00:32:32;43.90;;;15.50;;
69754;SDS011;57023;52.218;5.158;2023-11-21T00:34:57;49.28;;;15.98;;
69754;SDS011;57023;52.218;5.158;2023-11-21T00:37:22;62.28;;;16.35;;
69754;SDS011;57023;52.218;5.158;2023-11-21T00:39:49;51.00;;;16.90;;
69754;SDS011;57023;52.218;5.158;2023-11-21T00:42:14;42.17;;;15.85;;
69754;SDS011;57023;52.218;5.158;2023-11-21T00:44:39;47.15;;;15.38;;
69754;SDS011;57023;52.218;5.158;2023-11-21T00:47:05;46.20;;;15.90;;
69754;SDS011;57023;52.218;5.158;2023-11-21T00:49:30;40.00;;;15.32;;
69754;SDS011;57023;52.218;5.158;2023-11-21T00:51:55;42.83;;;15.23;;
69754;SDS011;57023;52.218;5.158;2023-11-21T00:54:23;36.28;;;15.23;;
69754;SDS011;57023;52.218;5.158;2023-11-21T00:56:48;40.58;;;15.30;;
69754;SDS011;57023;52.218;5.158;2023-11-21T00:59:13;43.10;;;15.65;;
69754;SDS011;57023;52.218;5.158;2023-11-21T01:01:38;36.92;;;15.10;;
69754;SDS011;57023;52.218;5.158;2023-11-21T01:04:04;33.97;;;14.77;;
69754;SDS011;57023;52.218;5.158;2023-11-21T01:06:31;33.83;;;14.32;;
69754;SDS011;57023;52.218;5.158;2023-11-21T01:08:57;35.80;;;15.27;;
69754;SDS011;57023;52.218;5.158;2023-11-21T01:11:22;34.58;;;14.00;;
69754;SDS011;57023;52.218;5.158;2023-11-21T01:13:47;38.22;;;14.98;;
69754;SDS011;57023;52.218;5.158;2023-11-21T01:16:12;33.42;;;14.45;;
69754;SDS011;57023;52.218;5.158;2023-11-21T01:18:38;32.65;;;14.02;;
69754;SDS011;57023;52.218;5.158;2023-11-21T01:21:03;34.60;;;13.65;;
69754;SDS011;57023;52.218;5.158;2023-11-21T01:23:29;28.08;;;13.25;;
69754;SDS011;57023;52.218;5.158;2023-11-21T01:25:58;31.15;;;14.07;;
69754;SDS011;57023;52.218;5.158;2023-11-21T01:28:23;32.25;;;13.18;;
69754;SDS011;57023;52.218;5.158;2023-11-21T01:30:48;33.72;;;14.00;;
69754;SDS011;57023;52.218;5.158;2023-11-21T01:33:14;33.15;;;14.15;;
69754;SDS011;57023;52.218;5.158;2023-11-21T01:35:40;26.67;;;13.13;;
69754;SDS011;57023;52.218;5.158;2023-11-21T01:38:06;34.88;;;14.25;;
69754;SDS011;57023;52.218;5.158;2023-11-21T01:40:33;29.13;;;13.32;;
69754;SDS011;57023;52.218;5.158;2023-11-21T01:42:58;33.40;;;13.88;;
69754;SDS011;57023;52.218;5.158;2023-11-21T01:45:24;30.77;;;13.65;;
69754;SDS011;57023;52.218;5.158;2023-11-21T01:47:50;33.03;;;13.60;;
69754;SDS011;57023;52.218;5.158;2023-11-21T01:50:15;30.60;;;13.07;;
69754;SDS011;57023;52.218;5.158;2023-11-21T01:52:42;27.83;;;13.18;;
69754;SDS011;57023;52.218;5.158;2023-11-21T01:55:09;28.65;;;12.90;;
69754;SDS011;57023;52.218;5.158;2023-11-21T01:57:35;26.65;;;12.52;;
69754;SDS011;57023;52.218;5.158;2023-11-21T02:00:02;27.05;;;12.85;;
69754;SDS011;57023;52.218;5.158;2023-11-21T02:02:41;26.98;;;12.45;;
69754;SDS011;57023;52.218;5.158;2023-11-21T02:05:08;27.23;;;12.57;;
69754;SDS011;57023;52.218;5.158;2023-11-21T02:07:35;27.60;;;12.52;;
69754;SDS011;57023;52.218;5.158;2023-11-21T02:10:00;29.50;;;12.98;;
69754;SDS011;57023;52.218;5.158;2023-11-21T02:12:26;23.48;;;11.70;;
69754;SDS011;57023;52.218;5.158;2023-11-21T02:14:52;26.25;;;11.57;;
69754;SDS011;57023;52.218;5.158;2023-11-21T02:17:18;22.67;;;11.75;;
69754;SDS011;57023;52.218;5.158;2023-11-21T02:19:43;22.25;;;11.25;;
69754;SDS011;57023;52.218;5.158;2023-11-21T02:22:09;22.05;;;11.27;;
69754;SDS011;57023;52.218;5.158;2023-11-21T02:24:35;28.10;;;11.98;;
69754;SDS011;57023;52.218;5.158;2023-11-21T02:27:01;23.90;;;11.93;;
69754;SDS011;57023;52.218;5.158;2023-11-21T02:29:27;24.83;;;11.35;;
69754;SDS011;57023;52.218;5.158;2023-11-21T02:31:53;24.30;;;11.05;;
69754;SDS011;57023;52.218;5.158;2023-11-21T02:34:19;23.93;;;11.57;;
69754;SDS011;57023;52.218;5.158;2023-11-21T02:36:45;23.23;;;10.70;;
69754;SDS011;57023;52.218;5.158;2023-11-21T02:39:10;22.60;;;11.50;;
69754;SDS011;57023;52.218;5.158;2023-11-21T02:41:39;22.98;;;10.98;;
69754;SDS011;57023;52.218;5.158;2023-11-21T02:44:05;22.08;;;11.38;;
69754;SDS011;57023;52.218;5.158;2023-11-21T02:46:31;26.15;;;12.10;;
69754;SDS011;57023;52.218;5.158;2023-11-21T02:48:58;26.60;;;11.48;;
69754;SDS011;57023;52.218;5.158;2023-11-21T02:51:27;25.95;;;11.55;;
69754;SDS011;57023;52.218;5.158;2023-11-21T02:53:52;23.35;;;11.20;;
69754;SDS011;57023;52.218;5.158;2023-11-21T02:56:18;26.85;;;10.85;;
69754;SDS011;57023;52.218;5.158;2023-11-21T02:58:43;25.25;;;11.43;;
69754;SDS011;57023;52.218;5.158;2023-11-21T03:01:09;21.75;;;10.65;;
69754;SDS011;57023;52.218;5.158;2023-11-21T03:03:36;21.57;;;11.17;;
69754;SDS011;57023;52.218;5.158;2023-11-21T03:06:05;22.23;;;10.43;;
69754;SDS011;57023;52.218;5.158;2023-11-21T03:08:31;23.60;;;11.18;;
69754;SDS011;57023;52.218;5.158;2023-11-21T03:10:57;25.60;;;11.38;;
69754;SDS011;57023;52.218;5.158;2023-11-21T03:13:22;22.17;;;10.73;;
69754;SDS011;57023;52.218;5.158;2023-11-21T03:15:47;24.35;;;11.38;;
69754;SDS011;57023;52.218;5.158;2023-11-21T03:18:13;25.98;;;10.70;;
69754;SDS011;57023;52.218;5.158;2023-11-21T03:20:38;26.05;;;11.25;;
69754;SDS011;57023;52.218;5.158;2023-11-21T03:23:04;27.13;;;11.27;;
69754;SDS011;57023;52.218;5.158;2023-11-21T03:25:30;24.70;;;10.65;;
69754;SDS011;57023;52.218;5.158;2023-11-21T03:27:56;29.08;;;10.38;;
69754;SDS011;57023;52.218;5.158;2023-11-21T03:30:21;21.77;;;10.20;;
69754;SDS011;57023;52.218;5.158;2023-11-21T03:32:46;25.25;;;10.60;;
69754;SDS011;57023;52.218;5.158;2023-11-21T03:35:12;23.60;;;11.10;;
69754;SDS011;57023;52.218;5.158;2023-11-21T03:37:37;23.65;;;10.48;;
69754;SDS011;57023;52.218;5.158;2023-11-21T03:40:06;25.00;;;10.97;;
69754;SDS011;57023;52.218;5.158;2023-11-21T03:42:33;24.02;;;10.40;;
69754;SDS011;57023;52.218;5.158;2023-11-21T03:44:58;22.48;;;10.57;;
69754;SDS011;57023;52.218;5.158;2023-11-21T03:47:23;25.58;;;10.52;;
69754;SDS011;57023;52.218;5.158;2023-11-21T03:49:49;27.55;;;11.32;;
69754;SDS011;57023;52.218;5.158;2023-11-21T03:52:14;25.60;;;11.50;;
69754;SDS011;57023;52.218;5.158;2023-11-21T03:54:40;27.45;;;10.75;;
69754;SDS011;57023;52.218;5.158;2023-11-21T03:57:05;24.85;;;10.63;;
69754;SDS011;57023;52.218;5.158;2023-11-21T03:59:30;29.90;;;11.55;;
69754;SDS011;57023;52.218;5.158;2023-11-21T04:01:56;21.67;;;10.70;;
69754;SDS011;57023;52.218;5.158;2023-11-21T04:04:22;29.40;;;11.20;;
69754;SDS011;57023;52.218;5.158;2023-11-21T04:06:47;25.15;;;11.18;;
69754;SDS011;57023;52.218;5.158;2023-11-21T04:09:13;32.00;;;10.98;;
69754;SDS011;57023;52.218;5.158;2023-11-21T04:11:38;25.85;;;10.55;;
69754;SDS011;57023;52.218;5.158;2023-11-21T04:14:03;24.08;;;10.13;;
69754;SDS011;57023;52.218;5.158;2023-11-21T04:16:29;27.45;;;10.70;;
69754;SDS011;57023;52.218;5.158;2023-11-21T04:18:54;23.10;;;9.75;;
69754;SDS011;57023;52.218;5.158;2023-11-21T04:21:19;30.33;;;11.15;;
69754;SDS011;57023;52.218;5.158;2023-11-21T04:23:45;24.80;;;10.20;;
69754;SDS011;57023;52.218;5.158;2023-11-21T04:26:10;30.00;;;10.52;;
69754;SDS011;57023;52.218;5.158;2023-11-21T04:28:35;24.27;;;10.88;;
69754;SDS011;57023;52.218;5.158;2023-11-21T04:31:01;29.00;;;11.75;;
69754;SDS011;57023;52.218;5.158;2023-11-21T04:33:26;25.50;;;10.63;;
69754;SDS011;57023;52.218;5.158;2023-11-21T04:35:51;26.20;;;11.00;;
69754;SDS011;57023;52.218;5.158;2023-11-21T04:38:17;24.80;;;10.90;;
69754;SDS011;57023;52.218;5.158;2023-11-21T04:40:43;25.73;;;11.55;;
69754;SDS011;57023;52.218;5.158;2023-11-21T04:43:08;27.83;;;11.85;;
69754;SDS011;57023;52.218;5.158;2023-11-21T04:45:34;25.60;;;10.95;;
69754;SDS011;57023;52.218;5.158;2023-11-21T04:47:59;26.15;;;10.95;;
69754;SDS011;57023;52.218;5.158;2023-11-21T04:50:24;24.17;;;10.73;;
69754;SDS011;57023;52.218;5.158;2023-11-21T04:52:52;26.38;;;10.30;;
69754;SDS011;57023;52.218;5.158;2023-11-21T04:55:17;23.70;;;10.43;;
69754;SDS011;57023;52.218;5.158;2023-11-21T04:57:42;27.02;;;11.02;;
69754;SDS011;57023;52.218;5.158;2023-11-21T05:00:11;21.13;;;10.90;;
69754;SDS011;57023;52.218;5.158;2023-11-21T05:02:37;27.77;;;11.27;;
69754;SDS011;57023;52.218;5.158;2023-11-21T05:05:03;21.92;;;10.63;;
69754;SDS011;57023;52.218;5.158;2023-11-21T05:07:30;24.23;;;10.40;;
69754;SDS011;57023;52.218;5.158;2023-11-21T05:09:57;22.58;;;10.55;;
69754;SDS011;57023;52.218;5.158;2023-11-21T05:12:22;29.05;;;11.40;;
69754;SDS011;57023;52.218;5.158;2023-11-21T05:14:49;28.25;;;11.05;;
69754;SDS011;57023;52.218;5.158;2023-11-21T05:17:15;23.90;;;10.98;;
69754;SDS011;57023;52.218;5.158;2023-11-21T05:19:40;29.42;;;11.68;;
69754;SDS011;57023;52.218;5.158;2023-11-21T05:22:06;22.92;;;10.77;;
69754;SDS011;57023;52.218;5.158;2023-11-21T05:24:31;24.77;;;10.98;;
69754;SDS011;57023;52.218;5.158;2023-11-21T05:26:56;28.42;;;11.63;;
69754;SDS011;57023;52.218;5.158;2023-11-21T05:29:22;27.33;;;12.05;;
69754;SDS011;57023;52.218;5.158;2023-11-21T05:31:48;28.73;;;11.07;;
69754;SDS011;57023;52.218;5.158;2023-11-21T05:34:13;24.23;;;10.75;;
69754;SDS011;57023;52.218;5.158;2023-11-21T05:36:39;27.45;;;11.75;;
69754;SDS011;57023;52.218;5.158;2023-11-21T05:39:05;26.02;;;11.70;;
69754;SDS011;57023;52.218;5.158;2023-11-21T05:41:30;23.00;;;11.57;;
69754;SDS011;57023;52.218;5.158;2023-11-21T05:43:55;32.05;;;11.73;;
69754;SDS011;57023;52.218;5.158;2023-11-21T05:46:20;26.90;;;11.32;;
69754;SDS011;57023;52.218;5.158;2023-11-21T05:48:46;38.25;;;12.27;;
69754;SDS011;57023;52.218;5.158;2023-11-21T05:51:11;27.30;;;11.93;;
69754;SDS011;57023;52.218;5.158;2023-11-21T05:53:38;23.52;;;11.13;;
69754;SDS011;57023;52.218;5.158;2023-11-21T05:56:04;26.50;;;11.27;;
69754;SDS011;57023;52.218;5.158;2023-11-21T05:58:29;27.73;;;11.63;;
69754;SDS011;57023;52.218;5.158;2023-11-21T06:00:55;33.33;;;12.40;;
69754;SDS011;57023;52.218;5.158;2023-11-21T06:03:20;26.52;;;12.48;;
69754;SDS011;57023;52.218;5.158;2023-11-21T06:05:45;25.17;;;11.40;;
69754;SDS011;57023;52.218;5.158;2023-11-21T06:08:11;28.60;;;11.85;;
69754;SDS011;57023;52.218;5.158;2023-11-21T06:10:36;32.72;;;12.18;;
69754;SDS011;57023;52.218;5.158;2023-11-21T06:13:01;30.15;;;12.05;;
69754;SDS011;57023;52.218;5.158;2023-11-21T06:15:28;27.17;;;12.00;;
69754;SDS011;57023;52.218;5.158;2023-11-21T06:17:54;28.75;;;12.50;;
69754;SDS011;57023;52.218;5.158;2023-11-21T06:20:19;29.90;;;11.98;;
69754;SDS011;57023;52.218;5.158;2023-11-21T06:22:46;35.33;;;12.02;;
69754;SDS011;57023;52.218;5.158;2023-11-21T06:25:12;29.33;;;12.30;;
69754;SDS011;57023;52.218;5.158;2023-11-21T06:27:39;28.30;;;12.30;;
69754;SDS011;57023;52.218;5.158;2023-11-21T06:30:08;24.50;;;10.52;;
69754;SDS011;57023;52.218;5.158;2023-11-21T06:32:37;27.50;;;10.50;;
69754;SDS011;57023;52.218;5.158;2023-11-21T06:35:04;22.88;;;10.85;;
69754;SDS011;57023;52.218;5.158;2023-11-21T06:37:31;22.90;;;9.95;;
69754;SDS011;57023;52.218;5.158;2023-11-21T06:39:57;23.65;;;9.50;;
69754;SDS011;57023;52.218;5.158;2023-11-21T06:42:23;26.08;;;8.05;;
69754;SDS011;57023;52.218;5.158;2023-11-21T06:44:49;20.85;;;7.80;;
69754;SDS011;57023;52.218;5.158;2023-11-21T06:49:42;18.60;;;6.53;;
69754;SDS011;57023;52.218;5.158;2023-11-21T06:52:08;20.58;;;7.63;;
69754;SDS011;57023;52.218;5.158;2023-11-21T06:54:33;18.98;;;7.10;;
69754;SDS011;57023;52.218;5.158;2023-11-21T06:56:59;23.63;;;7.35;;
69754;SDS011;57023;52.218;5.158;2023-11-21T06:59:25;23.83;;;7.55;;
69754;SDS011;57023;52.218;5.158;2023-11-21T07:01:50;19.55;;;7.32;;
69754;SDS011;57023;52.218;5.158;2023-11-21T07:04:16;24.23;;;7.63;;
69754;SDS011;57023;52.218;5.158;2023-11-21T07:06:41;22.88;;;7.32;;
69754;SDS011;57023;52.218;5.158;2023-11-21T07:09:08;18.40;;;7.03;;
69754;SDS011;57023;52.218;5.158;2023-11-21T07:11:34;17.92;;;7.35;;
69754;SDS011;57023;52.218;5.158;2023-11-21T07:14:00;20.25;;;7.07;;
69754;SDS011;57023;52.218;5.158;2023-11-21T07:16:30;15.35;;;6.47;;
69754;SDS011;57023;52.218;5.158;2023-11-21T07:18:55;16.75;;;6.40;;
69754;SDS011;57023;52.218;5.158;2023-11-21T07:21:21;20.02;;;6.80;;
69754;SDS011;57023;52.218;5.158;2023-11-21T07:23:46;22.63;;;5.97;;
69754;SDS011;57023;52.218;5.158;2023-11-21T07:26:11;17.05;;;6.22;;
69754;SDS011;57023;52.218;5.158;2023-11-21T07:28:37;17.80;;;5.95;;
69754;SDS011;57023;52.218;5.158;2023-11-21T07:31:02;17.15;;;6.05;;
69754;SDS011;57023;52.218;5.158;2023-11-21T07:33:28;17.05;;;6.30;;
69754;SDS011;57023;52.218;5.158;2023-11-21T07:35:53;15.70;;;5.60;;
69754;SDS011;57023;52.218;5.158;2023-11-21T07:38:19;18.35;;;5.68;;
69754;SDS011;57023;52.218;5.158;2023-11-21T07:40:44;19.67;;;6.43;;
69754;SDS011;57023;52.218;5.158;2023-11-21T07:43:12;16.67;;;5.93;;
69754;SDS011;57023;52.218;5.158;2023-11-21T07:45:37;21.20;;;6.13;;
69754;SDS011;57023;52.218;5.158;2023-11-21T07:48:03;22.73;;;6.50;;
69754;SDS011;57023;52.218;5.158;2023-11-21T07:50:30;21.75;;;6.28;;
69754;SDS011;57023;52.218;5.158;2023-11-21T07:52:55;44.30;;;19.48;;
69754;SDS011;57023;52.218;5.158;2023-11-21T07:55:21;35.03;;;12.50;;
69754;SDS011;57023;52.218;5.158;2023-11-21T07:57:46;28.30;;;8.88;;
69754;SDS011;57023;52.218;5.158;2023-11-21T08:00:12;26.63;;;9.45;;
69754;SDS011;57023;52.218;5.158;2023-11-21T08:02:40;24.80;;;7.90;;
69754;SDS011;57023;52.218;5.158;2023-11-21T08:05:11;26.73;;;8.35;;
69754;SDS011;57023;52.218;5.158;2023-11-21T08:07:37;26.80;;;9.53;;
69754;SDS011;57023;52.218;5.158;2023-11-21T08:10:03;26.05;;;9.38;;
69754;SDS011;57023;52.218;5.158;2023-11-21T08:12:30;36.67;;;10.13;;
69754;SDS011;57023;52.218;5.158;2023-11-21T08:14:55;35.13;;;11.25;;
69754;SDS011;57023;52.218;5.158;2023-11-21T08:17:20;28.38;;;9.85;;
69754;SDS011;57023;52.218;5.158;2023-11-21T08:19:46;25.80;;;8.75;;
69754;SDS011;57023;52.218;5.158;2023-11-21T08:22:14;24.98;;;8.00;;
69754;SDS011;57023;52.218;5.158;2023-11-21T08:24:41;25.17;;;8.02;;
69754;SDS011;57023;52.218;5.158;2023-11-21T08:27:06;27.33;;;9.65;;
69754;SDS011;57023;52.218;5.158;2023-11-21T08:29:32;25.10;;;9.60;;
69754;SDS011;57023;52.218;5.158;2023-11-21T08:31:57;24.38;;;8.27;;
69754;SDS011;57023;52.218;5.158;2023-11-21T08:34:22;25.75;;;9.43;;
69754;SDS011;57023;52.218;5.158;2023-11-21T08:36:48;21.48;;;8.25;;
69754;SDS011;57023;52.218;5.158;2023-11-21T08:39:16;25.48;;;10.18;;
69754;SDS011;57023;52.218;5.158;2023-11-21T08:41:43;18.63;;;7.80;;
69754;SDS011;57023;52.218;5.158;2023-11-21T08:44:09;17.48;;;7.88;;
69754;SDS011;57023;52.218;5.158;2023-11-21T08:46:34;19.80;;;8.02;;
69754;SDS011;57023;52.218;5.158;2023-11-21T08:49:01;19.65;;;6.88;;
69754;SDS011;57023;52.218;5.158;2023-11-21T08:51:27;16.88;;;6.60;;
69754;SDS011;57023;52.218;5.158;2023-11-21T08:53:52;16.40;;;5.75;;
69754;SDS011;57023;52.218;5.158;2023-11-21T08:56:18;14.60;;;5.63;;
69754;SDS011;57023;52.218;5.158;2023-11-21T08:58:44;17.33;;;6.45;;
69754;SDS011;57023;52.218;5.158;2023-11-21T09:01:11;18.10;;;5.82;;
69754;SDS011;57023;52.218;5.158;2023-11-21T09:03:37;16.13;;;6.25;;
69754;SDS011;57023;52.218;5.158;2023-11-21T09:06:02;14.82;;;5.80;;
69754;SDS011;57023;52.218;5.158;2023-11-21T09:08:28;14.65;;;5.82;;
69754;SDS011;57023;52.218;5.158;2023-11-21T09:10:54;16.08;;;5.78;;
69754;SDS011;57023;52.218;5.158;2023-11-21T09:13:19;13.82;;;4.95;;
69754;SDS011;57023;52.218;5.158;2023-11-21T09:15:45;12.90;;;5.53;;
69754;SDS011;57023;52.218;5.158;2023-11-21T09:18:13;11.98;;;5.10;;
69754;SDS011;57023;52.218;5.158;2023-11-21T09:20:38;11.40;;;5.07;;
69754;SDS011;57023;52.218;5.158;2023-11-21T09:23:03;11.20;;;4.55;;
69754;SDS011;57023;52.218;5.158;2023-11-21T09:25:29;13.32;;;5.55;;
69754;SDS011;57023;52.218;5.158;2023-11-21T09:27:54;14.77;;;5.43;;
69754;SDS011;57023;52.218;5.158;2023-11-21T09:30:19;12.80;;;5.05;;
69754;SDS011;57023;52.218;5.158;2023-11-21T09:32:45;17.23;;;7.00;;
69754;SDS011;57023;52.218;5.158;2023-11-21T09:35:10;12.50;;;5.57;;
69754;SDS011;57023;52.218;5.158;2023-11-21T09:37:36;13.52;;;5.40;;
69754;SDS011;57023;52.218;5.158;2023-11-21T09:40:02;12.77;;;5.40;;
69754;SDS011;57023;52.218;5.158;2023-11-21T09:42:30;14.55;;;5.72;;
69754;SDS011;57023;52.218;5.158;2023-11-21T09:45:03;14.18;;;5.90;;
69754;SDS011;57023;52.218;5.158;2023-11-21T09:47:29;14.85;;;5.82;;
69754;SDS011;57023;52.218;5.158;2023-11-21T09:49:55;12.95;;;5.38;;
69754;SDS011;57023;52.218;5.158;2023-11-21T09:52:28;10.20;;;5.55;;
69754;SDS011;57023;52.218;5.158;2023-11-21T09:54:54;12.90;;;5.43;;
69754;SDS011;57023;52.218;5.158;2023-11-21T09:57:23;13.70;;;4.97;;
69754;SDS011;57023;52.218;5.158;2023-11-21T09:59:52;11.85;;;5.30;;
69754;SDS011;57023;52.218;5.158;2023-11-21T10:02:24;12.68;;;4.90;;
69754;SDS011;57023;52.218;5.158;2023-11-21T10:04:51;12.45;;;4.90;;
69754;SDS011;57023;52.218;5.158;2023-11-21T10:07:17;11.38;;;4.93;;
69754;SDS011;57023;52.218;5.158;2023-11-21T10:09:42;11.00;;;4.72;;
69754;SDS011;57023;52.218;5.158;2023-11-21T10:12:08;12.88;;;5.40;;
69754;SDS011;57023;52.218;5.158;2023-11-21T10:14:35;12.05;;;5.10;;
69754;SDS011;57023;52.218;5.158;2023-11-21T10:17:02;12.05;;;5.13;;
69754;SDS011;57023;52.218;5.158;2023-11-21T10:19:27;11.77;;;5.00;;
69754;SDS011;57023;52.218;5.158;2023-11-21T10:21:53;13.18;;;5.30;;
69754;SDS011;57023;52.218;5.158;2023-11-21T10:24:24;13.38;;;5.32;;
69754;SDS011;57023;52.218;5.158;2023-11-21T10:26:50;12.30;;;5.55;;
69754;SDS011;57023;52.218;5.158;2023-11-21T10:29:17;14.40;;;5.82;;
69754;SDS011;57023;52.218;5.158;2023-11-21T10:31:43;13.50;;;6.15;;
69754;SDS011;57023;52.218;5.158;2023-11-21T10:34:16;13.67;;;6.60;;
69754;SDS011;57023;52.218;5.158;2023-11-21T10:36:43;15.77;;;7.10;;
69754;SDS011;57023;52.218;5.158;2023-11-21T10:39:09;16.00;;;6.82;;
69754;SDS011;57023;52.218;5.158;2023-11-21T10:41:37;15.07;;;7.28;;
69754;SDS011;57023;52.218;5.158;2023-11-21T10:44:03;15.70;;;6.65;;
69754;SDS011;57023;52.218;5.158;2023-11-21T10:46:31;17.95;;;7.13;;
69754;SDS011;57023;52.218;5.158;2023-11-21T10:48:57;21.33;;;8.27;;
69754;SDS011;57023;52.218;5.158;2023-11-21T10:51:22;20.27;;;8.80;;
69754;SDS011;57023;52.218;5.158;2023-11-21T10:53:49;24.98;;;9.07;;
69754;SDS011;57023;52.218;5.158;2023-11-21T10:56:16;25.27;;;8.68;;
69754;SDS011;57023;52.218;5.158;2023-11-21T10:58:44;21.13;;;8.07;;
69754;SDS011;57023;52.218;5.158;2023-11-21T11:01:10;20.05;;;8.25;;
69754;SDS011;57023;52.218;5.158;2023-11-21T11:03:37;19.13;;;7.63;;
69754;SDS011;57023;52.218;5.158;2023-11-21T11:06:03;18.23;;;7.60;;
69754;SDS011;57023;52.218;5.158;2023-11-21T11:08:30;21.00;;;8.40;;
69754;SDS011;57023;52.218;5.158;2023-11-21T11:10:56;21.10;;;8.40;;
69754;SDS011;57023;52.218;5.158;2023-11-21T11:13:23;23.85;;;9.38;;
69754;SDS011;57023;52.218;5.158;2023-11-21T11:15:49;21.00;;;8.77;;
69754;SDS011;57023;52.218;5.158;2023-11-21T11:18:15;23.27;;;9.43;;
69754;SDS011;57023;52.218;5.158;2023-11-21T11:20:40;21.40;;;9.70;;
69754;SDS011;57023;52.218;5.158;2023-11-21T11:28:36;24.25;;;10.05;;
69754;SDS011;57023;52.218;5.158;2023-11-21T11:34:23;27.42;;;10.52;;
69754;SDS011;57023;52.218;5.158;2023-11-21T11:36:47;27.17;;;9.65;;
69754;SDS011;57023;52.218;5.158;2023-11-21T11:39:26;21.90;;;8.88;;
69754;SDS011;57023;52.218;5.158;2023-11-21T11:42:13;26.23;;;8.75;;
69754;SDS011;57023;52.218;5.158;2023-11-21T11:49:54;16.90;;;7.20;;
69754;SDS011;57023;52.218;5.158;2023-11-21T11:52:37;14.90;;;6.85;;
69754;SDS011;57023;52.218;5.158;2023-11-21T11:55:07;18.42;;;7.40;;
69754;SDS011;57023;52.218;5.158;2023-11-21T11:57:35;16.00;;;6.90;;
69754;SDS011;57023;52.218;5.158;2023-11-21T12:00:11;16.65;;;7.10;;
69754;SDS011;57023;52.218;5.158;2023-11-21T12:02:40;14.30;;;6.63;;
69754;SDS011;57023;52.218;5.158;2023-11-21T12:05:09;13.98;;;6.30;;
69754;SDS011;57023;52.218;5.158;2023-11-21T12:07:42;12.93;;;5.88;;
69754;SDS011;57023;52.218;5.158;2023-11-21T12:10:18;13.82;;;6.20;;
69754;SDS011;57023;52.218;5.158;2023-11-21T12:12:45;13.63;;;6.07;;
69754;SDS011;57023;52.218;5.158;2023-11-21T12:15:11;14.35;;;6.22;;
69754;SDS011;57023;52.218;5.158;2023-11-21T12:17:37;13.95;;;6.82;;
69754;SDS011;57023;52.218;5.158;2023-11-21T12:20:04;14.35;;;6.63;;
69754;SDS011;57023;52.218;5.158;2023-11-21T12:22:31;15.98;;;6.63;;
69754;SDS011;57023;52.218;5.158;2023-11-21T12:24:56;13.50;;;6.32;;
69754;SDS011;57023;52.218;5.158;2023-11-21T12:27:22;16.20;;;6.88;;
69754;SDS011;57023;52.218;5.158;2023-11-21T12:29:47;14.80;;;6.72;;
69754;SDS011;57023;52.218;5.158;2023-11-21T12:32:12;17.67;;;7.00;;
69754;SDS011;57023;52.218;5.158;2023-11-21T12:34:41;14.25;;;6.45;;
69754;SDS011;57023;52.218;5.158;2023-11-21T12:37:06;18.35;;;6.88;;
69754;SDS011;57023;52.218;5.158;2023-11-21T12:39:32;17.45;;;7.07;;
69754;SDS011;57023;52.218;5.158;2023-11-21T12:41:57;15.50;;;6.75;;
69754;SDS011;57023;52.218;5.158;2023-11-21T12:44:22;17.50;;;7.20;;
69754;SDS011;57023;52.218;5.158;2023-11-21T12:46:49;19.45;;;7.47;;
69754;SDS011;57023;52.218;5.158;2023-11-21T12:49:15;21.65;;;8.00;;
69754;SDS011;57023;52.218;5.158;2023-11-21T12:51:43;24.10;;;8.73;;
69754;SDS011;57023;52.218;5.158;2023-11-21T12:54:09;19.83;;;8.25;;
69754;SDS011;57023;52.218;5.158;2023-11-21T12:56:38;24.75;;;8.68;;
69754;SDS011;57023;52.218;5.158;2023-11-21T12:59:03;22.92;;;8.75;;
69754;SDS011;57023;52.218;5.158;2023-11-21T13:01:29;26.10;;;8.68;;
69754;SDS011;57023;52.218;5.158;2023-11-21T13:03:56;27.13;;;9.77;;
69754;SDS011;57023;52.218;5.158;2023-11-21T13:06:27;33.38;;;11.27;;
69754;SDS011;57023;52.218;5.158;2023-11-21T13:08:53;30.40;;;10.98;;
69754;SDS011;57023;52.218;5.158;2023-11-21T13:11:19;28.10;;;10.57;;
69754;SDS011;57023;52.218;5.158;2023-11-21T13:13:45;29.73;;;11.02;;
69754;SDS011;57023;52.218;5.158;2023-11-21T13:16:10;28.85;;;10.55;;
69754;SDS011;57023;52.218;5.158;2023-11-21T13:18:36;28.90;;;10.80;;
69754;SDS011;57023;52.218;5.158;2023-11-21T13:21:03;30.45;;;10.50;;
69754;SDS011;57023;52.218;5.158;2023-11-21T13:23:37;28.13;;;10.88;;
69754;SDS011;57023;52.218;5.158;2023-11-21T13:26:03;26.27;;;10.23;;
69754;SDS011;57023;52.218;5.158;2023-11-21T13:28:29;27.73;;;10.47;;
69754;SDS011;57023;52.218;5.158;2023-11-21T13:30:57;29.60;;;10.40;;
69754;SDS011;57023;52.218;5.158;2023-11-21T13:33:28;25.38;;;10.15;;
69754;SDS011;57023;52.218;5.158;2023-11-21T13:35:53;21.10;;;8.80;;
69754;SDS011;57023;52.218;5.158;2023-11-21T13:38:21;24.50;;;9.95;;
69754;SDS011;57023;52.218;5.158;2023-11-21T13:40:48;24.90;;;10.00;;
69754;SDS011;57023;52.218;5.158;2023-11-21T13:43:17;21.25;;;8.45;;
69754;SDS011;57023;52.218;5.158;2023-11-21T13:45:46;25.45;;;9.65;;
69754;SDS011;57023;52.218;5.158;2023-11-21T13:48:12;23.80;;;9.30;;
69754;SDS011;57023;52.218;5.158;2023-11-21T13:50:47;24.15;;;9.57;;
69754;SDS011;57023;52.218;5.158;2023-11-21T13:53:24;20.43;;;9.17;;
69754;SDS011;57023;52.218;5.158;2023-11-21T13:55:50;27.23;;;9.65;;
69754;SDS011;57023;52.218;5.158;2023-11-21T13:58:19;27.10;;;10.40;;
69754;SDS011;57023;52.218;5.158;2023-11-21T14:00:48;25.75;;;11.05;;
69754;SDS011;57023;52.218;5.158;2023-11-21T14:03:21;24.83;;;9.35;;
69754;SDS011;57023;52.218;5.158;2023-11-21T14:05:46;27.13;;;10.02;;
69754;SDS011;57023;52.218;5.158;2023-11-21T14:08:16;28.02;;;11.82;;
69754;SDS011;57023;52.218;5.158;2023-11-21T14:10:45;23.02;;;9.68;;
69754;SDS011;57023;52.218;5.158;2023-11-21T14:13:15;22.35;;;10.27;;
69754;SDS011;57023;52.218;5.158;2023-11-21T14:15:41;21.60;;;9.75;;
69754;SDS011;57023;52.218;5.158;2023-11-21T14:18:10;19.75;;;8.35;;
69754;SDS011;57023;52.218;5.158;2023-11-21T14:20:36;19.85;;;9.15;;
69754;SDS011;57023;52.218;5.158;2023-11-21T14:23:02;19.90;;;9.10;;
69754;SDS011;57023;52.218;5.158;2023-11-21T14:25:30;21.83;;;8.45;;
69754;SDS011;57023;52.218;5.158;2023-11-21T14:27:55;20.35;;;8.20;;
69754;SDS011;57023;52.218;5.158;2023-11-21T14:30:21;17.55;;;8.20;;
69754;SDS011;57023;52.218;5.158;2023-11-21T14:32:47;17.52;;;7.57;;
69754;SDS011;57023;52.218;5.158;2023-11-21T14:35:13;18.33;;;8.63;;
69754;SDS011;57023;52.218;5.158;2023-11-21T14:37:40;16.05;;;7.85;;
69754;SDS011;57023;52.218;5.158;2023-11-21T14:40:05;18.00;;;8.07;;